< < Back
Terminal Aerodrome Forecast


Current Version              Previous Versions:   1  2  3  4  5  6  7  8  9  

Terminal Aerodrome Forecast

554
FTUS42 KMLB 310306 AAA
TAFMCO
TAF AMD
KMCO 310306Z 3103/3124 15004KT P6SM VCSH FEW008 SCT013 BKN110
      TEMPO 3103/3106 BKN015
     FM311300 19007KT P6SM SCT020 BKN100 OVC250
      TEMPO 3115/3118 2SM TSRA BKN020CB
     FM311800 20005KT P6SM VCTS SCT020CB BKN040 OVC150=



Latest METAR

980
SAUS70 KWBC 310800 RRD
MTRMCO
METAR KMCO 310753Z 11003KT 10SM FEW070 BKN110 BKN140 24/24 A3001 RMK AO2
SLP159 T02440239 $


USA.gov is the U.S. government's official web portal to all federal, state and local government web resources and services.